Time;durP1;ratioP1;P1;durP2;ratioP2;P2;SDS_P1;SDS_P2;PMS_P1;PMS_P2;Temp;Humidity;BMP_temperature;BMP_pressure;BME280_temperature;BME280_humidity;BME280_pressure;Samples;Min_cycle;Max_cycle;Signal;HPM_P1;HPM_P2
2024/01/14 00:00:53;;;;;;;8.07;7.37;;;;;;;-1.51;100.00;98748.59;4136791;28;20260;-52
2024/01/14 00:02:55;;;;;;;22.83;8.50;;;;;;;-1.29;100.00;98747.06;4142667;28;20276;-53
2024/01/14 00:04:57;;;;;;;10.23;9.33;;;;;;;-1.39;100.00;98746.41;4137671;28;20202;-52
2024/01/14 00:06:59;;;;;;;10.97;9.17;;;;;;;-1.42;100.00;98744.06;4131292;28;20216;-53
2024/01/14 00:09:01;;;;;;;10.30;9.30;;;;;;;-1.34;100.00;98746.72;4135404;28;20209;-52
2024/01/14 00:11:04;;;;;;;23.53;11.20;;;;;;;-1.29;100.00;98741.69;4146305;28;20271;-53
2024/01/14 00:13:05;;;;;;;12.00;10.70;;;;;;;-1.39;100.00;98746.41;4137394;28;20568;-54
2024/01/14 00:15:07;;;;;;;10.27;9.30;;;;;;;-1.64;100.00;98731.31;4135653;28;20224;-52
2024/01/14 00:17:10;;;;;;;12.97;9.57;;;;;;;-1.56;100.00;98728.63;4136424;28;20258;-54
2024/01/14 00:19:12;;;;;;;9.70;7.97;;;;;;;-1.54;100.00;98723.94;4140855;28;20205;-53
2024/01/14 00:21:14;;;;;;;10.30;9.40;;;;;;;-1.59;100.00;98726.28;4137271;28;20233;-53
2024/01/14 00:23:16;;;;;;;27.47;7.40;;;;;;;-1.52;100.00;98720.09;4134744;28;21017;-53
2024/01/14 00:25:19;;;;;;;9.93;6.87;;;;;;;-1.50;100.00;98718.06;4132521;28;20209;-52
2024/01/14 00:27:20;;;;;;;8.20;7.47;;;;;;;-1.51;100.00;98703.00;4138743;28;20656;-54
2024/01/14 00:29:22;;;;;;;13.17;9.80;;;;;;;-1.51;100.00;98712.88;4141051;28;20687;-54
2024/01/14 00:31:24;;;;;;;8.80;8.10;;;;;;;-1.49;100.00;98714.38;4133224;28;20238;-53
2024/01/14 00:33:26;;;;;;;8.80;7.97;;;;;;;-1.47;100.00;98708.84;4136134;28;20252;-53
2024/01/14 00:35:28;;;;;;;9.20;7.83;;;;;;;-1.53;100.00;98704.97;4135758;28;20720;-54
2024/01/14 00:37:30;;;;;;;12.37;8.23;;;;;;;-1.45;100.00;98702.31;4120518;28;20210;-53
2024/01/14 00:39:37;;;;;;;11.30;9.37;;;;;;;-1.33;100.00;98689.38;4132607;28;20222;-53
2024/01/14 00:41:39;;;;;;;7.33;6.70;;;;;;;-1.37;100.00;98683.50;4148589;28;20221;-52
2024/01/14 00:43:40;;;;;;;11.53;7.90;;;;;;;-1.45;100.00;98685.38;4137273;28;20746;-50
2024/01/14 00:45:42;;;;;;;7.30;5.70;;;;;;;-1.40;100.00;98677.66;4136662;28;20206;-52
2024/01/14 00:47:44;;;;;;;11.97;6.07;;;;;;;-1.34;100.00;98683.16;4137345;28;20232;-52
2024/01/14 00:49:47;;;;;;;9.47;8.43;;;;;;;-1.25;100.00;98671.41;4134646;28;20205;-52
2024/01/14 00:51:49;;;;;;;7.20;6.57;;;;;;;-1.27;100.00;98667.22;4136190;28;20236;-52
2024/01/14 00:53:51;;;;;;;9.77;8.87;;;;;;;-1.36;100.00;98662.84;4132669;28;20571;-53
2024/01/14 00:55:53;;;;;;;7.73;6.20;;;;;;;-1.27;100.00;98662.66;4132377;28;20281;-52
2024/01/14 00:57:55;;;;;;;9.77;6.13;;;;;;;-1.40;100.00;98666.91;4133440;28;20699;-52
2024/01/14 00:59:56;;;;;;;16.40;8.67;;;;;;;-1.35;100.00;98656.50;4130623;28;20260;-52
2024/01/14 01:01:58;;;;;;;12.73;7.63;;;;;;;-1.55;100.00;98653.34;4134958;28;20256;-52
2024/01/14 01:04:00;;;;;;;9.80;8.73;;;;;;;-1.45;100.00;98658.53;4115532;28;20220;-52
2024/01/14 01:06:02;;;;;;;11.57;10.67;;;;;;;-1.60;100.00;98644.16;4137256;28;20209;-52
2024/01/14 01:08:04;;;;;;;17.63;8.57;;;;;;;-1.65;100.00;98635.78;4134581;28;20301;-53
2024/01/14 01:10:06;;;;;;;11.47;8.13;;;;;;;-1.61;100.00;98637.13;4141046;28;20205;-52
2024/01/14 01:12:08;;;;;;;6.60;6.07;;;;;;;-1.64;100.00;98638.31;4139121;28;20237;-53
2024/01/14 01:14:09;;;;;;;10.00;9.00;;;;;;;-1.64;100.00;98643.66;4138888;28;20638;-53
2024/01/14 01:16:11;;;;;;;11.27;8.70;;;;;;;-1.50;100.00;98634.06;4139951;28;20872;-51
2024/01/14 01:18:13;;;;;;;11.03;9.17;;;;;;;-1.54;100.00;98633.56;4145851;28;20275;-52
2024/01/14 01:20:15;;;;;;;11.07;9.23;;;;;;;-1.60;100.00;98633.44;4134285;28;20206;-52
2024/01/14 01:22:16;;;;;;;15.43;9.60;;;;;;;-1.58;100.00;98637.63;4139593;28;20276;-51
2024/01/14 01:24:18;;;;;;;14.57;9.30;;;;;;;-1.48;100.00;98637.44;4135327;28;20214;-52
2024/01/14 01:26:20;;;;;;;11.87;8.47;;;;;;;-1.56;100.00;98640.97;4119467;28;20215;-52
2024/01/14 01:28:25;;;;;;;10.13;9.27;;;;;;;-1.60;100.00;98641.47;4138900;28;20304;-50
2024/01/14 01:30:26;;;;;;;13.03;9.83;;;;;;;-1.52;100.00;98630.72;4135560;28;20210;-52
2024/01/14 01:32:28;;;;;;;14.60;9.33;;;;;;;-1.42;100.00;98632.19;4136281;28;20259;-53
2024/01/14 01:34:30;;;;;;;12.60;9.60;;;;;;;-1.54;100.00;98632.75;4136334;28;20864;-52
2024/01/14 01:36:32;;;;;;;12.33;9.60;;;;;;;-1.60;100.00;98628.06;4151928;28;20543;-52
2024/01/14 01:38:34;;;;;;;9.10;8.10;;;;;;;-1.67;100.00;98637.81;4141228;28;20951;-53
2024/01/14 01:40:36;;;;;;;13.43;9.07;;;;;;;-1.58;100.00;98647.50;4139159;28;20218;-53
2024/01/14 01:42:37;;;;;;;23.67;11.17;;;;;;;-1.69;100.00;98639.81;4138636;28;20699;-54
2024/01/14 01:44:39;;;;;;;13.57;10.67;;;;;;;-1.67;100.00;98643.16;4125572;28;20214;-52
2024/01/14 01:46:41;;;;;;;12.50;8.60;;;;;;;-1.58;100.00;98639.44;4137455;28;20758;-51
2024/01/14 01:48:43;;;;;;;13.70;10.73;;;;;;;-1.54;100.00;98638.94;4138335;28;20686;-54
2024/01/14 01:50:46;;;;;;;14.57;10.70;;;;;;;-1.60;100.00;98634.25;4139648;28;20213;-53
2024/01/14 01:52:48;;;;;;;11.27;10.13;;;;;;;-1.47;100.00;98633.72;4122523;28;20278;-53
2024/01/14 01:54:50;;;;;;;11.20;8.93;;;;;;;-1.54;100.00;98638.94;4139589;28;20209;-53
2024/01/14 01:56:52;;;;;;;11.60;8.90;;;;;;;-1.52;100.00;98626.22;4126532;28;20217;-52
2024/01/14 01:58:54;;;;;;;14.73;10.20;;;;;;;-1.71;100.00;98629.25;4132619;28;20221;-52
2024/01/14 02:00:56;;;;;;;12.57;8.17;;;;;;;-1.63;100.00;98628.38;4133924;28;20205;-49
2024/01/14 02:02:58;;;;;;;14.83;9.30;;;;;;;-1.55;100.00;98620.34;4131977;28;20686;-50
2024/01/14 02:05:00;;;;;;;9.53;8.70;;;;;;;-1.48;100.00;98621.34;4141182;28;20567;-52
2024/01/14 02:07:01;;;;;;;11.43;10.33;;;;;;;-1.39;100.00;98620.28;4140845;28;20211;-50
2024/01/14 02:09:07;;;;;;;11.90;9.47;;;;;;;-1.62;100.00;98625.53;4127541;28;20744;-51
2024/01/14 02:11:09;;;;;;;10.60;9.30;;;;;;;-1.67;100.00;98621.72;4137847;28;20706;-53
2024/01/14 02:13:11;;;;;;;11.63;9.43;;;;;;;-1.65;100.00;98625.91;4142241;28;20232;-52
2024/01/14 02:15:13;;;;;;;10.90;8.07;;;;;;;-1.48;100.00;98621.34;4149737;28;20244;-52
2024/01/14 02:17:15;;;;;;;12.37;10.60;;;;;;;-1.53;100.00;98623.69;4136718;28;20311;-52
2024/01/14 02:19:17;;;;;;;11.07;7.73;;;;;;;-1.51;100.00;98618.97;4137556;28;20217;-53
2024/01/14 02:21:46;;;;;;;18.97;10.50;;;;;;;-1.59;100.00;98614.50;4125941;28;20238;-52
2024/01/14 02:23:52;;;;;;;11.63;10.23;;;;;;;-1.42;100.00;98609.91;4151633;28;20695;-52
2024/01/14 02:25:54;;;;;;;9.47;8.50;;;;;;;-1.56;100.00;98619.50;4137335;28;20757;-52
2024/01/14 02:27:56;;;;;;;8.83;8.03;;;;;;;-1.49;100.00;98612.44;4137149;28;20209;-52
2024/01/14 02:29:58;;;;;;;7.23;6.73;;;;;;;-1.35;100.00;98617.06;4120253;28;20247;-52
2024/01/14 02:32:00;;;;;;;8.87;8.07;;;;;;;-1.43;100.00;98613.59;4138538;28;20264;-53
2024/01/14 02:34:03;;;;;;;7.40;6.70;;;;;;;-1.41;100.00;98606.22;4141340;28;20245;-52
2024/01/14 02:36:05;;;;;;;8.33;7.67;;;;;;;-1.40;100.00;98602.53;4136108;28;20221;-52
2024/01/14 02:38:07;;;;;;;8.50;7.70;;;;;;;-1.44;100.00;98611.91;4142229;28;20248;-52
2024/01/14 02:40:12;;;;;;;9.90;8.90;;;;;;;-1.37;100.00;98607.53;4138778;28;20214;-52
2024/01/14 02:42:14;;;;;;;7.90;7.20;;;;;;;-1.36;100.00;98603.81;4123172;28;20314;-52
2024/01/14 02:44:15;;;;;;;8.23;5.93;;;;;;;-1.38;100.00;98617.44;4124656;28;20315;-53
2024/01/14 02:46:17;;;;;;;10.00;6.30;;;;;;;-1.31;100.00;98601.47;4136210;28;20201;-53
2024/01/14 02:48:19;;;;;;;11.93;8.37;;;;;;;-1.45;100.00;98599.50;4123266;28;20245;-54
2024/01/14 02:50:21;;;;;;;16.07;8.77;;;;;;;-1.45;100.00;98595.00;4136706;28;20297;-50
2024/01/14 02:52:22;;;;;;;11.47;7.37;;;;;;;-1.49;100.00;98577.56;4137282;28;20233;-52
2024/01/14 02:54:24;;;;;;;9.10;8.07;;;;;;;-1.62;100.00;98577.28;4140140;28;20659;-52
2024/01/14 02:56:26;;;;;;;10.30;7.97;;;;;;;-1.56;100.00;98579.25;4140656;28;20271;-53
2024/01/14 02:58:28;;;;;;;18.07;7.10;;;;;;;-1.67;100.00;98568.09;4140117;28;20696;-53
2024/01/14 03:00:30;;;;;;;11.17;8.97;;;;;;;-1.72;100.00;98575.78;4141345;28;20213;-52
2024/01/14 03:02:31;;;;;;;10.83;9.27;;;;;;;-1.81;100.00;98568.78;4152594;28;20966;-52
2024/01/14 03:04:33;;;;;;;6.50;5.73;;;;;;;-1.87;100.00;98567.59;4136388;28;20213;-52
2024/01/14 03:06:35;;;;;;;10.00;7.50;;;;;;;-1.84;100.00;98564.59;4137578;28;20210;-53
2024/01/14 03:08:37;;;;;;;14.90;7.83;;;;;;;-1.78;100.00;98568.44;4141054;28;20210;-52
2024/01/14 03:10:38;;;;;;;9.23;7.30;;;;;;;-1.84;100.00;98561.06;4139165;28;20205;-52
2024/01/14 03:12:40;;;;;;;14.40;8.83;;;;;;;-1.90;100.00;98561.75;4140492;28;20275;-52
2024/01/14 03:14:42;;;;;;;8.43;7.13;;;;;;;-1.95;100.00;98566.81;4136805;28;20283;-53
2024/01/14 03:16:43;;;;;;;10.93;6.60;;;;;;;-1.90;100.00;98557.25;4124192;28;20214;-53
2024/01/14 03:18:45;;;;;;;10.70;7.57;;;;;;;-1.87;100.00;98558.75;4139226;28;20256;-52
2024/01/14 03:20:47;;;;;;;15.17;10.57;;;;;;;-1.92;100.00;98553.06;4136123;28;20217;-52
2024/01/14 03:22:49;;;;;;;16.67;12.20;;;;;;;-1.86;100.00;98553.22;4135294;28;20656;-53
2024/01/14 03:24:51;;;;;;;11.03;9.50;;;;;;;-1.91;100.00;98558.25;4141699;28;20208;-52
2024/01/14 03:26:53;;;;;;;7.00;6.37;;;;;;;-1.84;100.00;98561.06;4137358;28;20205;-52
2024/01/14 03:28:54;;;;;;;10.83;9.57;;;;;;;-1.86;100.00;98560.41;4133586;28;20237;-52
2024/01/14 03:30:56;;;;;;;8.37;7.60;;;;;;;-1.97;100.00;98566.97;4135451;28;20707;-52
2024/01/14 03:32:58;;;;;;;13.47;9.87;;;;;;;-1.98;100.00;98559.94;4126350;28;20221;-52
2024/01/14 03:35:00;;;;;;;10.90;9.97;;;;;;;-2.01;100.00;98552.22;4119265;28;20207;-52
2024/01/14 03:37:02;;;;;;;11.73;10.33;;;;;;;-1.92;100.00;98558.41;4138529;28;20217;-51
2024/01/14 03:39:03;;;;;;;12.47;9.50;;;;;;;-1.91;100.00;98555.56;4120947;28;20678;-53
2024/01/14 03:41:06;;;;;;;15.50;11.63;;;;;;;-1.92;100.00;98550.38;4124780;28;20670;-52
2024/01/14 03:43:07;;;;;;;9.80;8.77;;;;;;;-2.00;100.00;98551.22;4140334;28;20197;-54
2024/01/14 03:45:09;;;;;;;12.03;9.50;;;;;;;-1.95;100.00;98545.38;4137863;28;20637;-53
2024/01/14 03:47:11;;;;;;;9.73;8.97;;;;;;;-2.05;100.00;98552.75;4138290;28;20213;-52
2024/01/14 03:49:12;;;;;;;18.83;11.13;;;;;;;-1.97;100.00;98550.03;4134770;28;20671;-52
2024/01/14 03:51:14;;;;;;;14.37;12.53;;;;;;;-2.18;100.00;98537.22;4137744;28;20229;-52
2024/01/14 03:53:16;;;;;;;10.70;9.63;;;;;;;-2.05;100.00;98553.59;4135715;28;20257;-52
2024/01/14 03:55:18;;;;;;;23.70;11.40;;;;;;;-2.14;100.00;98545.75;4137700;28;20221;-52
2024/01/14 03:57:20;;;;;;;11.23;8.87;;;;;;;-2.17;100.00;98543.38;4143026;28;20209;-52
2024/01/14 03:59:22;;;;;;;8.87;8.07;;;;;;;-2.15;100.00;98547.56;4143855;28;20648;-52
2024/01/14 04:01:25;;;;;;;14.70;8.77;;;;;;;-2.19;100.00;98543.56;4139155;28;20290;-51
2024/01/14 04:03:27;;;;;;;15.47;8.73;;;;;;;-2.16;100.00;98539.69;4126030;28;20226;-52
2024/01/14 04:05:28;;;;;;;12.30;10.03;;;;;;;-2.14;100.00;98543.06;4135850;28;20209;-51
2024/01/14 04:07:30;;;;;;;16.93;11.47;;;;;;;-2.21;100.00;98536.72;4135845;28;20651;-53
2024/01/14 04:09:35;;;;;;;16.13;12.03;;;;;;;-2.26;100.00;98525.66;4134247;28;20271;-51
2024/01/14 04:11:37;;;;;;;13.47;10.47;;;;;;;-2.27;100.00;98542.75;4141094;28;20316;-53
2024/01/14 04:13:38;;;;;;;11.80;10.47;;;;;;;-2.26;100.00;98544.41;4149897;28;20236;-50
2024/01/14 04:15:40;;;;;;;13.83;10.87;;;;;;;-2.25;100.00;98536.22;4121979;28;20688;-52
2024/01/14 04:17:42;;;;;;;18.43;10.00;;;;;;;-2.21;100.00;98542.06;4141335;28;20210;-52
2024/01/14 04:19:44;;;;;;;11.23;10.20;;;;;;;-2.12;100.00;98541.03;4134737;28;20316;-51
2024/01/14 04:21:46;;;;;;;23.77;9.57;;;;;;;-2.10;100.00;98536.34;4124292;28;20787;-50
2024/01/14 04:23:48;;;;;;;27.00;11.30;;;;;;;-2.11;100.00;98545.38;4121538;28;20222;-52
2024/01/14 04:25:50;;;;;;;12.63;8.50;;;;;;;-2.13;100.00;98542.06;4137158;28;20296;-50
2024/01/14 04:27:51;;;;;;;21.90;12.03;;;;;;;-2.18;100.00;98541.72;4142620;28;20205;-51
2024/01/14 04:29:53;;;;;;;9.67;8.63;;;;;;;-2.07;100.00;98539.50;4133950;28;20304;-51
2024/01/14 04:31:55;;;;;;;9.77;8.77;;;;;;;-2.13;100.00;98534.00;4140354;28;20231;-54
2024/01/14 04:33:59;;;;;;;11.73;8.03;;;;;;;-2.07;100.00;98533.34;4135661;28;20217;-52
2024/01/14 04:36:01;;;;;;;14.10;10.53;;;;;;;-2.10;100.00;98528.28;4134557;28;20661;-51
2024/01/14 04:38:03;;;;;;;15.37;9.57;;;;;;;-2.20;100.00;98530.34;4139923;28;20209;-52
2024/01/14 04:40:06;;;;;;;10.57;9.67;;;;;;;-2.20;100.00;98524.97;4138219;28;20205;-52
2024/01/14 04:42:08;;;;;;;13.10;12.03;;;;;;;-2.16;100.00;98528.97;4143520;28;20245;-52
2024/01/14 04:44:09;;;;;;;10.90;8.30;;;;;;;-2.18;100.00;98525.63;4139294;28;20268;-52
2024/01/14 04:46:11;;;;;;;9.87;8.87;;;;;;;-2.25;100.00;98525.50;4143559;28;20286;-52
2024/01/14 04:48:13;;;;;;;14.27;12.80;;;;;;;-2.15;100.00;98523.44;4136696;28;20218;-51
2024/01/14 04:50:15;;;;;;;10.40;9.30;;;;;;;-2.16;100.00;98515.56;4137509;28;20220;-50
2024/01/14 04:52:17;;;;;;;14.13;11.10;;;;;;;-2.20;100.00;98501.69;4135736;28;20252;-51
2024/01/14 04:54:19;;;;;;;14.83;7.87;;;;;;;-2.19;100.00;98514.09;4138369;28;20218;-52
2024/01/14 04:56:21;;;;;;;11.53;8.90;;;;;;;-2.23;100.00;98507.41;4137305;28;20702;-51
2024/01/14 04:58:22;;;;;;;8.07;7.37;;;;;;;-2.22;100.00;98511.75;4138069;28;20212;-52
2024/01/14 05:00:25;;;;;;;19.10;10.37;;;;;;;-2.14;100.00;98510.91;4141376;28;20210;-52
2024/01/14 05:02:27;;;;;;;15.07;9.77;;;;;;;-2.25;100.00;98508.56;4144299;28;20256;-52
2024/01/14 05:04:28;;;;;;;13.07;10.00;;;;;;;-2.24;100.00;98505.72;4143536;28;20206;-51
2024/01/14 05:06:30;;;;;;;12.27;10.87;;;;;;;-2.18;100.00;98504.19;4138116;28;20212;-52
2024/01/14 05:08:32;;;;;;;15.43;9.47;;;;;;;-2.13;100.00;98496.50;4126339;28;20241;-51
2024/01/14 05:10:34;;;;;;;15.07;11.87;;;;;;;-2.27;100.00;98505.25;4155420;28;20628;-52
2024/01/14 05:12:36;;;;;;;10.43;8.60;;;;;;;-2.24;100.00;98499.53;4142550;28;20644;-51
2024/01/14 05:14:38;;;;;;;11.90;9.43;;;;;;;-2.20;100.00;98498.19;4144075;28;20722;-51
2024/01/14 05:16:40;;;;;;;17.13;12.17;;;;;;;-2.20;100.00;98499.00;4140816;28;20264;-52
2024/01/14 05:18:42;;;;;;;19.27;9.77;;;;;;;-2.22;100.00;98502.88;4140147;28;20213;-52
2024/01/14 05:20:43;;;;;;;11.27;9.87;;;;;;;-2.18;100.00;98498.84;4145636;28;20244;-51
2024/01/14 05:22:45;;;;;;;15.77;10.37;;;;;;;-2.10;100.00;98493.47;4129459;28;20256;-51
2024/01/14 05:24:47;;;;;;;16.90;10.53;;;;;;;-2.10;100.00;98493.47;4129620;28;20212;-52
2024/01/14 05:26:49;;;;;;;18.77;12.20;;;;;;;-2.05;100.00;98500.00;4144609;28;20202;-52
2024/01/14 05:28:51;;;;;;;10.53;9.63;;;;;;;-2.10;100.00;98497.00;4137957;28;20333;-52
2024/01/14 05:30:52;;;;;;;20.37;13.30;;;;;;;-1.98;100.00;98490.25;4140416;28;20210;-52
2024/01/14 05:32:54;;;;;;;18.27;10.90;;;;;;;-2.05;100.00;98491.97;4140915;28;20210;-51
2024/01/14 05:34:56;;;;;;;30.90;13.37;;;;;;;-2.05;100.00;98488.44;4135814;28;20800;-52
2024/01/14 05:36:59;;;;;;;11.50;10.03;;;;;;;-2.00;100.00;98489.56;4134108;28;20228;-51
2024/01/14 05:39:01;;;;;;;16.33;8.73;;;;;;;-2.01;100.00;98487.09;4139057;28;20272;-51
2024/01/14 05:41:03;;;;;;;17.97;13.00;;;;;;;-2.02;100.00;98482.75;4125572;28;20699;-51
2024/01/14 05:43:06;;;;;;;15.40;11.53;;;;;;;-2.12;100.00;98482.94;4137576;28;20209;-51
2024/01/14 05:45:10;;;;;;;18.00;8.33;;;;;;;-2.02;100.00;98482.75;4142861;28;20235;-51
2024/01/14 05:47:12;;;;;;;16.47;14.70;;;;;;;-1.97;100.00;98472.31;4141748;28;20261;-51
2024/01/14 05:49:14;;;;;;;17.97;12.87;;;;;;;-1.95;100.00;98467.63;4141051;28;20209;-52
2024/01/14 05:51:16;;;;;;;16.27;7.63;;;;;;;-2.00;100.00;98467.31;4141215;28;20319;-53
2024/01/14 05:53:18;;;;;;;23.37;11.97;;;;;;;-2.07;100.00;98469.00;4139804;28;20228;-52
2024/01/14 05:55:20;;;;;;;14.37;12.37;;;;;;;-2.05;100.00;98467.00;4142771;28;20222;-51
2024/01/14 05:57:22;;;;;;;16.93;13.63;;;;;;;-2.04;100.00;98464.16;4142144;28;20678;-52
2024/01/14 05:59:24;;;;;;;12.00;10.97;;;;;;;-2.07;100.00;98458.28;4150271;28;20352;-52
2024/01/14 06:01:29;;;;;;;19.47;12.07;;;;;;;-2.14;100.00;98457.31;4140005;28;20229;-51
2024/01/14 06:03:30;;;;;;;25.80;10.40;;;;;;;-2.12;100.00;98455.28;4140038;28;20351;-51
2024/01/14 06:05:32;;;;;;;9.70;8.70;;;;;;;-2.14;100.00;98451.94;4139433;28;20217;-52
2024/01/14 06:07:35;;;;;;;13.50;10.27;;;;;;;-2.08;100.00;98456.63;4140026;28;20683;-51
2024/01/14 06:09:36;;;;;;;17.93;11.23;;;;;;;-2.21;100.00;98450.97;4142560;28;20244;-50
2024/01/14 06:11:41;;;;;;;17.50;14.70;;;;;;;-2.04;100.00;98447.22;4143045;28;20316;-51
2024/01/14 06:13:43;;;;;;;15.90;8.87;;;;;;;-2.20;100.00;98447.28;4138829;28;20963;-51
2024/01/14 06:15:45;;;;;;;11.67;9.73;;;;;;;-2.01;100.00;98446.88;4136353;28;20552;-51
2024/01/14 06:17:47;;;;;;;25.43;11.93;;;;;;;-2.12;100.00;98449.94;4137029;28;20212;-51
2024/01/14 06:19:49;;;;;;;9.83;7.67;;;;;;;-2.15;100.00;98444.94;4135504;28;20206;-51
2024/01/14 06:21:51;;;;;;;11.10;8.00;;;;;;;-2.17;100.00;98442.41;4138533;28;21370;-52
2024/01/14 06:23:52;;;;;;;18.80;11.23;;;;;;;-2.23;100.00;98442.25;4137297;28;20572;-51
2024/01/14 06:25:54;;;;;;;13.80;12.03;;;;;;;-2.21;100.00;98441.06;4135882;28;20306;-51
2024/01/14 06:27:56;;;;;;;35.93;11.00;;;;;;;-2.35;100.00;98435.63;4139982;28;20268;-51
2024/01/14 06:29:58;;;;;;;21.60;10.37;;;;;;;-2.34;100.00;98435.41;4136007;28;20257;-51
2024/01/14 06:31:59;;;;;;;15.37;11.20;;;;;;;-2.33;100.00;98436.25;4152574;28;20231;-51
2024/01/14 06:34:01;;;;;;;21.50;8.40;;;;;;;-2.36;100.00;98431.22;4139243;28;20707;-51
2024/01/14 06:36:05;;;;;;;24.70;12.37;;;;;;;-2.47;100.00;98426.25;4138322;28;20201;-52
2024/01/14 06:38:08;;;;;;;19.50;8.83;;;;;;;-2.46;100.00;98426.09;4141596;28;20659;-52
2024/01/14 06:40:11;;;;;;;11.37;8.97;;;;;;;-2.48;100.00;98427.28;4144431;28;20347;-52
2024/01/14 06:42:19;;;;;;;17.37;10.90;;;;;;;-2.40;100.00;98414.66;4136777;28;20271;-51
2024/01/14 06:44:20;;;;;;;17.93;9.70;;;;;;;-2.25;100.00;98423.69;4138138;28;20248;-51
2024/01/14 06:46:22;;;;;;;8.03;7.33;;;;;;;-2.33;100.00;98430.91;4137560;28;20255;-50
2024/01/14 06:48:24;;;;;;;19.50;12.33;;;;;;;-2.42;100.00;98419.38;4138041;28;20283;-51
2024/01/14 06:50:26;;;;;;;10.17;8.57;;;;;;;-2.47;100.00;98418.22;4136443;28;20328;-51
2024/01/14 06:52:28;;;;;;;15.43;8.20;;;;;;;-2.45;100.00;98416.19;4137948;28;20265;-51
2024/01/14 06:54:29;;;;;;;19.93;10.93;;;;;;;-2.48;100.00;98405.84;4134155;28;20217;-51
2024/01/14 06:56:32;;;;;;;13.97;7.97;;;;;;;-2.53;100.00;98408.19;4153341;28;20243;-52
2024/01/14 06:58:34;;;;;;;11.23;10.23;;;;;;;-2.48;100.00;98405.84;4154618;28;20267;-52
2024/01/14 07:00:36;;;;;;;10.07;8.00;;;;;;;-2.51;100.00;98392.78;4136803;28;20206;-51
2024/01/14 07:02:38;;;;;;;9.03;8.13;;;;;;;-2.52;100.00;98400.00;4136493;28;20225;-52
2024/01/14 07:04:40;;;;;;;19.63;9.60;;;;;;;-2.45;100.00;98394.78;4137746;28;20205;-51
2024/01/14 07:06:42;;;;;;;12.30;9.77;;;;;;;-2.42;100.00;98399.81;4144286;28;20215;-51
2024/01/14 07:08:44;;;;;;;21.93;12.53;;;;;;;-2.43;100.00;98398.09;4134918;28;20260;-52
2024/01/14 07:10:46;;;;;;;11.37;10.10;;;;;;;-2.44;100.00;98397.28;4134082;28;20202;-51
2024/01/14 07:12:47;;;;;;;11.13;9.27;;;;;;;-2.52;100.00;98393.78;4137394;28;20717;-51
2024/01/14 07:14:49;;;;;;;14.13;10.53;;;;;;;-2.55;100.00;98394.16;4136759;28;20233;-51
2024/01/14 07:16:51;;;;;;;26.07;9.33;;;;;;;-2.55;100.00;98388.78;4134923;28;20205;-51
2024/01/14 07:18:53;;;;;;;14.80;8.93;;;;;;;-2.62;100.00;98388.63;4143994;28;20930;-51
2024/01/14 07:20:55;;;;;;;16.83;9.60;;;;;;;-2.65;100.00;98386.31;4136885;28;20206;-51
2024/01/14 07:22:57;;;;;;;13.90;12.50;;;;;;;-2.62;100.00;98393.16;4141951;28;20201;-52
2024/01/14 07:25:18;;;;;;;14.50;12.73;;;;;;;-2.49;100.00;98383.56;4143237;28;20198;-52
2024/01/14 07:27:20;;;;;;;14.57;10.80;;;;;;;-2.55;100.00;98383.44;4143251;28;20213;-52
2024/01/14 07:29:22;;;;;;;13.07;12.10;;;;;;;-2.67;100.00;98387.47;4143539;28;20205;-52
2024/01/14 07:31:28;;;;;;;12.17;11.00;;;;;;;-2.66;100.00;98376.56;4134505;28;20583;-52
2024/01/14 07:33:30;;;;;;;27.23;10.93;;;;;;;-2.61;100.00;98386.81;4137004;28;20205;-51
2024/01/14 07:35:32;;;;;;;12.63;9.80;;;;;;;-2.56;100.00;98377.25;4124973;28;20302;-51
2024/01/14 07:37:34;;;;;;;15.33;6.80;;;;;;;-2.52;100.00;98383.09;4140703;28;20245;-51
2024/01/14 07:39:36;;;;;;;14.17;11.30;;;;;;;-2.55;100.00;98386.13;4135977;28;20717;-51
2024/01/14 07:41:39;;;;;;;10.27;9.17;;;;;;;-2.56;100.00;98381.75;4135697;28;20221;-51
2024/01/14 07:43:41;;;;;;;11.60;10.50;;;;;;;-2.49;100.00;98377.38;4135501;28;20210;-52
2024/01/14 07:45:42;;;;;;;9.80;8.90;;;;;;;-2.55;100.00;98383.44;4140696;28;20205;-51
2024/01/14 07:47:44;;;;;;;12.17;9.93;;;;;;;-2.64;100.00;98385.28;4135591;28;20217;-52
2024/01/14 07:49:48;;;;;;;16.63;9.33;;;;;;;-2.60;100.00;98383.09;4136010;28;20578;-52
2024/01/14 07:51:50;;;;;;;11.27;10.37;;;;;;;-2.65;100.00;98372.91;4140647;28;20637;-52
2024/01/14 07:53:52;;;;;;;9.17;8.47;;;;;;;-2.66;100.00;98381.13;4135801;28;20214;-51
2024/01/14 07:55:53;;;;;;;8.23;7.53;;;;;;;-2.59;100.00;98376.75;4135580;28;20242;-52
2024/01/14 07:57:57;;;;;;;11.07;10.03;;;;;;;-2.62;100.00;98369.06;4139418;28;20656;-51
2024/01/14 07:59:59;;;;;;;11.47;10.30;;;;;;;-2.57;100.00;98382.75;4141343;28;20231;-51
2024/01/14 08:02:01;;;;;;;9.40;7.53;;;;;;;-2.64;100.00;98371.06;4136142;28;20259;-51
2024/01/14 08:04:03;;;;;;;18.70;7.67;;;;;;;-2.57;100.00;98374.72;4125501;28;20194;-51
2024/01/14 08:06:05;;;;;;;9.20;8.30;;;;;;;-2.79;100.00;98378.97;4137123;28;20257;-52
2024/01/14 08:08:08;;;;;;;13.10;9.80;;;;;;;-2.73;100.00;98374.78;4135129;28;20244;-50
2024/01/14 08:10:11;;;;;;;9.10;6.37;;;;;;;-2.68;100.00;98373.25;4140980;28;20214;-52
2024/01/14 08:12:13;;;;;;;13.13;9.10;;;;;;;-2.60;100.00;98369.72;4137906;28;20229;-51
2024/01/14 08:14:14;;;;;;;8.60;7.93;;;;;;;-2.66;100.00;98376.56;4137014;28;20606;-52
2024/01/14 08:16:16;;;;;;;8.00;7.37;;;;;;;-2.52;100.00;98375.03;4139520;28;20212;-52
2024/01/14 08:18:19;;;;;;;12.17;10.57;;;;;;;-2.58;100.00;98373.91;4139855;28;20209;-52
2024/01/14 08:20:21;;;;;;;14.03;9.37;;;;;;;-2.57;100.00;98369.38;4141525;28;20212;-52
2024/01/14 08:22:26;;;;;;;7.60;6.87;;;;;;;-2.70;100.00;98369.06;4126717;28;20226;-52
2024/01/14 08:24:27;;;;;;;19.93;11.50;;;;;;;-2.57;100.00;98370.22;4137300;28;20209;-52
2024/01/14 08:26:29;;;;;;;14.60;7.23;;;;;;;-2.54;100.00;98366.38;4138471;28;20292;-52
2024/01/14 08:28:32;;;;;;;17.87;9.13;;;;;;;-2.53;100.00;98354.63;4144013;28;20209;-50
2024/01/14 08:30:34;;;;;;;7.47;6.73;;;;;;;-2.43;100.00;98355.25;4142492;28;20215;-52
2024/01/14 08:32:36;;;;;;;9.17;8.40;;;;;;;-2.72;100.00;98355.03;4143550;28;20351;-52
2024/01/14 08:34:38;;;;;;;10.87;9.97;;;;;;;-2.73;100.00;98369.41;4138209;28;20880;-52
2024/01/14 08:36:40;;;;;;;12.50;10.97;;;;;;;-2.76;100.00;98359.03;4139015;28;20209;-52
2024/01/14 08:38:41;;;;;;;12.97;7.63;;;;;;;-2.83;100.00;98358.06;4137996;28;20301;-52
2024/01/14 08:40:43;;;;;;;21.37;10.30;;;;;;;-2.95;100.00;98354.09;4138890;28;20211;-52
2024/01/14 08:42:45;;;;;;;9.40;6.23;;;;;;;-2.74;100.00;98347.16;4143482;28;20738;-53
2024/01/14 08:44:47;;;;;;;6.17;5.83;;;;;;;-2.74;100.00;98346.34;4140860;28;20206;-52
2024/01/14 08:46:49;;;;;;;8.83;8.03;;;;;;;-2.76;100.00;98351.84;4140040;28;20214;-52
2024/01/14 08:48:51;;;;;;;8.80;7.97;;;;;;;-2.77;100.00;98347.50;4143646;28;20213;-51
2024/01/14 08:50:53;;;;;;;11.43;8.80;;;;;;;-2.74;100.00;98347.16;4138859;28;20714;-51
2024/01/14 08:52:55;;;;;;;12.97;6.97;;;;;;;-2.70;100.00;98342.28;4144960;28;20232;-52
2024/01/14 08:54:57;;;;;;;11.23;7.30;;;;;;;-2.70;100.00;98343.16;4143451;28;20229;-51
2024/01/14 08:56:58;;;;;;;21.13;10.23;;;;;;;-2.79;100.00;98348.69;4143599;28;20654;-52
2024/01/14 08:59:00;;;;;;;12.13;7.33;;;;;;;-2.62;100.00;98356.50;4144847;28;20650;-52
2024/01/14 09:01:03;;;;;;;5.73;5.13;;;;;;;-2.64;100.00;98357.66;4140606;28;20244;-50
2024/01/14 09:03:04;;;;;;;8.83;6.33;;;;;;;-2.66;100.00;98360.50;4141288;28;20224;-51
2024/01/14 09:05:06;;;;;;;9.67;5.43;;;;;;;-2.74;100.00;98354.38;4138417;28;20248;-52
2024/01/14 09:07:08;;;;;;;8.63;5.60;;;;;;;-2.68;100.00;98353.69;4139632;28;20711;-52
2024/01/14 09:09:10;;;;;;;11.90;9.40;;;;;;;-2.65;100.00;98351.50;4146023;28;20253;-51
2024/01/14 09:11:13;;;;;;;13.27;9.40;;;;;;;-2.62;100.00;98351.16;4144387;28;20236;-52
2024/01/14 09:13:15;;;;;;;6.30;5.93;;;;;;;-2.69;100.00;98346.63;4143080;28;20252;-53
2024/01/14 09:15:16;;;;;;;9.87;6.87;;;;;;;-2.81;100.00;98350.72;4138601;28;20240;-52
2024/01/14 09:17:18;;;;;;;12.57;9.60;;;;;;;-2.87;100.00;98346.03;4124703;28;20730;-52
2024/01/14 09:19:20;;;;;;;15.57;6.83;;;;;;;-2.81;100.00;98351.53;4145798;28;20260;-52
2024/01/14 09:21:22;;;;;;;6.70;6.00;;;;;;;-2.68;100.00;98345.66;4141567;28;20234;-52